Bridgewater, Massachusetts
Current Conditions -  °F | °C
As of 12:52 AM on Saturday 20 Dec 2014 (Local Time) from KTAN Reporting Station
Broken Clouds Broken Clouds  
Wind Chill: -4°   Ceiling: 3300
Heat Index: -4°   Visibility: 10mi
Dew Point: -6°   Wind: 0mph
Humidity: 88%   Direction: NA
Pressure: 30.15"   Gusts: NA
Location:  41.99°N, 70.98°W
Report Text: KTAN 200552Z AUTO 00000KT 10SM BKN033 M04/M06 A3015 RMK AO2 SLP209 I6000 T10391056 10017 21050 53009
Loading
Personal Weather Stations






























Interactive Weather Map New forecast layout! Learn more

10-Day Weather Forecast

Advertisements
Track Severe Weather on mobile